Time;durP1;ratioP1;P1;durP2;ratioP2;P2;SDS_P1;SDS_P2;PMS_P1;PMS_P2;Temp;Humidity;BMP_temperature;BMP_pressure;BME280_temperature;BME280_humidity;BME280_pressure;Samples;Min_cycle;Max_cycle;Signal;HPM_P1;HPM_P2
2023/05/21 00:00:43;;;;;;;7.57;5.38;;;14.80;99.90;;;;;;5050867;28;20276;-72
2023/05/21 00:03:12;;;;;;;9.60;5.85;;;14.80;99.90;;;;;;5038350;28;20269;-72
2023/05/21 00:05:39;;;;;;;5.95;5.35;;;14.80;99.90;;;;;;5049248;28;20207;-72
2023/05/21 00:08:06;;;;;;;6.53;5.93;;;14.70;99.90;;;;;;5050851;28;20231;-72
2023/05/21 00:10:33;;;;;;;6.50;5.75;;;14.70;99.90;;;;;;5049449;28;20249;-72
2023/05/21 00:13:00;;;;;;;9.00;5.25;;;14.60;99.90;;;;;;5051121;28;20249;-71
2023/05/21 00:15:28;;;;;;;7.88;4.97;;;14.60;99.90;;;;;;5050233;28;20285;-72
2023/05/21 00:17:55;;;;;;;9.52;5.80;;;14.70;99.90;;;;;;5050844;28;20710;-73
2023/05/21 00:20:22;;;;;;;6.28;4.55;;;14.70;99.90;;;;;;5050640;28;20242;-73
2023/05/21 00:22:49;;;;;;;6.22;5.38;;;14.70;99.90;;;;;;5050736;28;20255;-72
2023/05/21 00:25:16;;;;;;;8.35;5.40;;;14.60;99.90;;;;;;5050693;28;20674;-72
2023/05/21 00:27:43;;;;;;;8.48;6.00;;;14.60;99.90;;;;;;5049917;28;20248;-73
2023/05/21 00:30:10;;;;;;;7.50;5.97;;;14.60;99.90;;;;;;5050751;28;20303;-73
2023/05/21 00:32:38;;;;;;;6.65;4.90;;;14.60;99.90;;;;;;5048177;28;20202;-74
2023/05/21 00:35:06;;;;;;;9.02;6.57;;;14.60;99.90;;;;;;5050151;28;20270;-73
2023/05/21 00:37:33;;;;;;;6.30;5.47;;;14.60;99.90;;;;;;5050020;28;20242;-74
2023/05/21 00:40:01;;;;;;;8.88;4.90;;;14.50;99.90;;;;;;5050325;28;20289;-70
2023/05/21 00:42:29;;;;;;;8.57;5.00;;;14.50;99.90;;;;;;5050196;28;20207;-73
2023/05/21 00:44:56;;;;;;;7.32;5.68;;;14.60;99.90;;;;;;5050596;28;20210;-73
2023/05/21 00:47:25;;;;;;;8.63;6.85;;;14.50;99.90;;;;;;5050086;28;20231;-71
2023/05/21 00:49:54;;;;;;;8.55;6.82;;;14.50;99.90;;;;;;5050607;28;20214;-73
2023/05/21 00:52:21;;;;;;;8.52;5.20;;;14.50;99.90;;;;;;5050737;28;20239;-73
2023/05/21 00:54:50;;;;;;;7.30;5.90;;;14.50;99.90;;;;;;5050102;28;20234;-72
2023/05/21 00:57:20;;;;;;;6.93;5.60;;;14.60;99.90;;;;;;5050517;28;20210;-73
2023/05/21 00:59:48;;;;;;;6.93;5.97;;;14.60;99.90;;;;;;5049990;28;20202;-72
2023/05/21 01:02:17;;;;;;;9.20;5.40;;;14.60;99.90;;;;;;5049981;28;20249;-72
2023/05/21 01:04:44;;;;;;;7.93;5.95;;;14.50;99.90;;;;;;5049497;28;20691;-73
2023/05/21 01:07:13;;;;;;;5.93;5.20;;;14.50;99.90;;;;;;5050435;28;20234;-72
2023/05/21 01:09:40;;;;;;;9.45;5.75;;;14.50;99.90;;;;;;5049846;28;20203;-72
2023/05/21 01:12:08;;;;;;;6.70;4.85;;;14.50;99.90;;;;;;5050397;28;20245;-71
2023/05/21 01:14:37;;;;;;;8.73;5.03;;;14.50;99.90;;;;;;5049639;28;20343;-73
2023/05/21 01:17:09;;;;;;;6.28;5.53;;;14.50;99.90;;;;;;5049507;28;20238;-73
2023/05/21 01:19:36;;;;;;;6.22;5.38;;;14.50;99.90;;;;;;5049861;28;20261;-72
2023/05/21 01:22:06;;;;;;;6.13;5.30;;;14.50;99.90;;;;;;5052604;28;20238;-72
2023/05/21 01:24:34;;;;;;;6.95;4.93;;;14.40;99.90;;;;;;5053941;28;20231;-72
2023/05/21 01:27:06;;;;;;;10.02;6.00;;;14.40;99.90;;;;;;5053884;28;20678;-72
2023/05/21 01:29:33;;;;;;;7.30;5.45;;;14.40;99.90;;;;;;5053459;28;20210;-72
2023/05/21 01:32:09;;;;;;;8.32;5.43;;;14.30;99.90;;;;;;5053741;28;20631;-72
2023/05/21 01:34:41;;;;;;;7.68;5.60;;;14.30;99.90;;;;;;5053539;28;20238;-72
2023/05/21 01:37:15;;;;;;;10.52;6.53;;;14.30;99.90;;;;;;5053665;28;20226;-72
2023/05/21 01:39:49;;;;;;;7.15;6.47;;;14.20;99.90;;;;;;5053115;28;20249;-72
2023/05/21 01:42:18;;;;;;;7.63;5.35;;;14.20;99.90;;;;;;5053538;28;20244;-70
2023/05/21 01:44:47;;;;;;;6.47;5.88;;;14.20;99.90;;;;;;5053626;28;20556;-72
2023/05/21 01:47:15;;;;;;;8.55;5.70;;;14.10;99.90;;;;;;5053397;28;20272;-72
2023/05/21 01:49:43;;;;;;;9.77;5.18;;;14.20;99.90;;;;;;5053199;28;21114;-72
2023/05/21 01:52:10;;;;;;;11.43;6.30;;;14.10;99.90;;;;;;5053431;28;20246;-73
2023/05/21 01:54:37;;;;;;;8.85;4.40;;;14.20;99.90;;;;;;5052755;28;20776;-72
2023/05/21 01:57:05;;;;;;;7.28;5.45;;;14.30;99.90;;;;;;5053728;28;20242;-72
2023/05/21 01:59:32;;;;;;;11.02;5.75;;;14.20;99.90;;;;;;5052768;28;20238;-73
2023/05/21 02:01:59;;;;;;;9.98;5.15;;;14.10;99.90;;;;;;5053239;28;20218;-73
2023/05/21 02:04:26;;;;;;;10.75;6.00;;;14.10;99.90;;;;;;5052788;28;20595;-73
2023/05/21 02:06:54;;;;;;;8.15;6.80;;;14.20;99.90;;;;;;5053272;28;20581;-72
2023/05/21 02:09:21;;;;;;;9.98;6.65;;;14.10;99.90;;;;;;5053317;28;20269;-72
2023/05/21 02:11:48;;;;;;;10.77;8.93;;;14.10;99.90;;;;;;5053209;28;20230;-73
2023/05/21 02:14:16;;;;;;;12.07;9.68;;;14.00;99.90;;;;;;5053223;28;20277;-73
2023/05/21 02:16:43;;;;;;;10.27;9.27;;;13.90;99.90;;;;;;5052263;28;20249;-73
2023/05/21 02:19:10;;;;;;;16.25;11.32;;;14.00;99.90;;;;;;5052861;28;20213;-74
2023/05/21 02:21:37;;;;;;;17.35;12.98;;;14.00;99.90;;;;;;5052157;28;20736;-74
2023/05/21 02:24:05;;;;;;;19.02;14.13;;;14.00;99.90;;;;;;5053174;28;20265;-74
2023/05/21 02:26:31;;;;;;;22.67;13.93;;;13.90;99.90;;;;;;5052270;28;20240;-72
2023/05/21 02:28:58;;;;;;;16.10;14.50;;;14.00;99.90;;;;;;5052465;28;20744;-73
2023/05/21 02:31:27;;;;;;;18.45;14.00;;;14.10;99.90;;;;;;5052396;28;20245;-71
2023/05/21 02:33:53;;;;;;;15.80;13.65;;;14.10;99.90;;;;;;5051910;28;20728;-73
2023/05/21 02:36:20;;;;;;;16.13;14.40;;;14.10;99.90;;;;;;5052881;28;20292;-74
2023/05/21 02:38:47;;;;;;;16.63;13.57;;;14.20;99.90;;;;;;5051809;28;20260;-73
2023/05/21 02:41:14;;;;;;;15.82;12.77;;;14.10;99.90;;;;;;5052283;28;20756;-73
2023/05/21 02:43:41;;;;;;;14.48;11.25;;;14.10;99.90;;;;;;5052168;28;20249;-73
2023/05/21 02:46:08;;;;;;;14.10;10.43;;;14.10;99.90;;;;;;5038585;28;20242;-73
2023/05/21 02:48:36;;;;;;;9.57;8.27;;;14.20;99.90;;;;;;5051972;28;20249;-74
2023/05/21 02:51:03;;;;;;;10.23;8.40;;;14.20;99.90;;;;;;5052390;28;20238;-74
2023/05/21 02:53:30;;;;;;;9.52;7.75;;;14.10;99.90;;;;;;5051955;28;20257;-73
2023/05/21 02:55:57;;;;;;;8.65;7.70;;;14.00;99.90;;;;;;5052133;28;20700;-72
2023/05/21 02:58:24;;;;;;;9.10;8.18;;;14.10;99.90;;;;;;5052167;28;20203;-73
2023/05/21 03:00:52;;;;;;;8.13;7.32;;;14.10;99.90;;;;;;5052342;28;20210;-74
2023/05/21 03:03:19;;;;;;;10.02;8.18;;;14.00;99.90;;;;;;5052093;28;20219;-73
2023/05/21 03:05:48;;;;;;;10.15;8.15;;;14.10;99.90;;;;;;5051658;28;20663;-71
2023/05/21 03:08:15;;;;;;;11.52;6.53;;;14.00;99.90;;;;;;5052306;28;20199;-73
2023/05/21 03:10:42;;;;;;;9.98;7.55;;;14.00;99.90;;;;;;5051964;28;20207;-72
2023/05/21 03:13:09;;;;;;;8.75;6.47;;;14.10;99.90;;;;;;5051789;28;20231;-74
2023/05/21 03:15:37;;;;;;;9.40;7.35;;;14.10;99.90;;;;;;5051551;28;20262;-72
2023/05/21 03:18:04;;;;;;;8.80;6.55;;;14.10;99.90;;;;;;5051530;28;20211;-73
2023/05/21 03:20:32;;;;;;;6.93;6.03;;;14.10;99.90;;;;;;5051741;28;20650;-73
2023/05/21 03:23:03;;;;;;;14.65;7.18;;;14.00;99.90;;;;;;5051578;28;20692;-73
2023/05/21 03:25:30;;;;;;;5.65;5.18;;;14.00;99.90;;;;;;5051350;28;20214;-73
2023/05/21 03:27:57;;;;;;;7.55;6.70;;;14.00;99.90;;;;;;5051366;28;20242;-73
2023/05/21 03:30:23;;;;;;;8.07;6.28;;;14.00;99.90;;;;;;5065488;28;20733;-73
2023/05/21 03:32:50;;;;;;;8.98;5.57;;;13.80;99.90;;;;;;5052119;28;20210;-72
2023/05/21 03:35:17;;;;;;;7.00;6.15;;;13.80;99.90;;;;;;5051527;28;20262;-72
2023/05/21 03:37:45;;;;;;;8.77;6.32;;;13.90;99.90;;;;;;5051444;28;20753;-72
2023/05/21 03:40:14;;;;;;;9.77;6.28;;;14.00;99.90;;;;;;5051312;28;20215;-73
2023/05/21 03:42:41;;;;;;;5.80;5.05;;;14.00;99.90;;;;;;5050594;28;20658;-73
2023/05/21 03:45:09;;;;;;;12.45;7.03;;;14.10;99.90;;;;;;5051550;28;20238;-74
2023/05/21 03:47:36;;;;;;;9.68;6.18;;;14.00;99.90;;;;;;5051003;28;20249;-73
2023/05/21 03:50:04;;;;;;;8.73;6.38;;;13.90;99.90;;;;;;5051393;28;20243;-73
2023/05/21 03:52:31;;;;;;;8.00;6.13;;;13.80;99.90;;;;;;5050838;28;20229;-73
2023/05/21 03:54:58;;;;;;;9.38;5.90;;;13.80;99.90;;;;;;5051066;28;20261;-72
2023/05/21 03:57:26;;;;;;;9.30;6.78;;;13.80;99.90;;;;;;5050489;28;20640;-72
2023/05/21 03:59:53;;;;;;;8.80;6.53;;;13.80;99.90;;;;;;5051340;28;20203;-72
2023/05/21 04:02:21;;;;;;;9.18;5.65;;;13.90;99.90;;;;;;5051505;28;20260;-72
2023/05/21 04:04:50;;;;;;;6.60;5.97;;;13.80;99.90;;;;;;5050806;28;20210;-72
2023/05/21 04:07:18;;;;;;;9.32;6.30;;;13.80;99.90;;;;;;5051109;28;20218;-73
2023/05/21 04:09:45;;;;;;;8.60;6.20;;;13.90;99.90;;;;;;5050507;28;20206;-73
2023/05/21 04:12:12;;;;;;;7.93;7.07;;;13.90;99.90;;;;;;5050623;28;20214;-73
2023/05/21 04:14:41;;;;;;;9.73;7.13;;;13.90;99.90;;;;;;5050359;28;20238;-73
2023/05/21 04:17:08;;;;;;;10.68;6.50;;;13.90;99.90;;;;;;5050837;28;20242;-73
2023/05/21 04:19:35;;;;;;;10.05;6.82;;;13.90;99.90;;;;;;5050402;28;20203;-72
2023/05/21 04:22:02;;;;;;;10.25;7.05;;;13.80;99.90;;;;;;5050856;28;20203;-72
2023/05/21 04:24:29;;;;;;;7.35;6.65;;;13.90;99.90;;;;;;5050167;28;20238;-73
2023/05/21 04:27:00;;;;;;;7.53;6.32;;;13.90;99.90;;;;;;5050809;28;20206;-73
2023/05/21 04:29:28;;;;;;;9.20;7.13;;;13.90;99.90;;;;;;5050418;28;20217;-73
2023/05/21 04:31:57;;;;;;;8.32;6.28;;;13.90;99.90;;;;;;5050551;28;20199;-73
2023/05/21 04:34:23;;;;;;;8.05;6.00;;;13.80;99.90;;;;;;5050490;28;20239;-73
2023/05/21 04:36:51;;;;;;;9.30;6.82;;;13.90;99.90;;;;;;5050598;28;20235;-73
2023/05/21 04:39:18;;;;;;;7.80;6.88;;;13.80;99.90;;;;;;5044717;28;20235;-73
2023/05/21 04:41:44;;;;;;;9.85;6.97;;;13.80;99.90;;;;;;5041757;28;20265;-73
2023/05/21 04:44:14;;;;;;;12.77;8.15;;;13.80;99.90;;;;;;5050338;28;20241;-73
2023/05/21 04:46:41;;;;;;;11.02;8.10;;;13.80;99.90;;;;;;5049958;28;20215;-73
2023/05/21 04:49:10;;;;;;;12.20;7.20;;;13.90;99.90;;;;;;5049993;28;20206;-74
2023/05/21 04:51:37;;;;;;;9.80;7.47;;;13.90;99.90;;;;;;5050018;28;20211;-73
2023/05/21 04:54:04;;;;;;;10.50;8.23;;;13.90;99.90;;;;;;5049601;28;20666;-74
2023/05/21 04:56:31;;;;;;;9.02;8.00;;;13.80;99.90;;;;;;5053631;28;20269;-74
2023/05/21 04:58:58;;;;;;;11.10;7.50;;;13.70;99.90;;;;;;5056944;28;20293;-74
2023/05/21 05:01:25;;;;;;;18.45;8.45;;;13.80;99.90;;;;;;5056411;28;20572;-73
2023/05/21 05:03:52;;;;;;;12.90;7.10;;;13.80;99.90;;;;;;5057198;28;20211;-74
2023/05/21 05:06:21;;;;;;;10.65;8.13;;;13.90;99.90;;;;;;5056902;28;20252;-73
2023/05/21 05:08:49;;;;;;;9.23;6.95;;;13.90;99.90;;;;;;5056516;28;20199;-74
2023/05/21 05:11:17;;;;;;;7.60;6.85;;;13.90;99.90;;;;;;5056844;28;20203;-74
2023/05/21 05:13:44;;;;;;;11.35;7.95;;;13.90;99.90;;;;;;5056613;28;20206;-73
2023/05/21 05:16:11;;;;;;;9.43;6.93;;;13.90;99.90;;;;;;5057020;28;20265;-72
2023/05/21 05:18:38;;;;;;;13.77;7.30;;;13.90;99.90;;;;;;5056390;28;20206;-72
2023/05/21 05:21:05;;;;;;;15.95;8.30;;;13.80;99.90;;;;;;5056719;28;20748;-73
2023/05/21 05:23:33;;;;;;;11.32;7.30;;;13.70;99.90;;;;;;5056000;28;20268;-73
2023/05/21 05:26:00;;;;;;;9.38;7.10;;;13.70;99.90;;;;;;5056910;28;20241;-74
2023/05/21 05:28:27;;;;;;;11.45;8.18;;;13.80;99.90;;;;;;5056196;28;20567;-72
2023/05/21 05:30:54;;;;;;;8.40;7.07;;;13.80;99.90;;;;;;5056794;28;20259;-73
2023/05/21 05:33:21;;;;;;;14.80;7.50;;;13.80;99.90;;;;;;5056636;28;20238;-73
2023/05/21 05:35:48;;;;;;;11.85;7.88;;;13.80;99.90;;;;;;5056266;28;20669;-73
2023/05/21 05:38:15;;;;;;;12.73;9.60;;;13.80;99.90;;;;;;5056297;28;20249;-74
2023/05/21 05:40:44;;;;;;;8.50;7.60;;;13.80;99.90;;;;;;5042151;28;20290;-72
2023/05/21 05:43:11;;;;;;;10.63;7.80;;;13.90;99.90;;;;;;5056580;28;20238;-73
2023/05/21 05:45:38;;;;;;;8.80;8.00;;;13.90;99.90;;;;;;5056720;28;20246;-74
2023/05/21 05:48:05;;;;;;;11.35;7.97;;;13.80;99.90;;;;;;5056533;28;20235;-73
2023/05/21 05:50:32;;;;;;;8.75;7.18;;;13.90;99.90;;;;;;5045417;28;20242;-73
2023/05/21 05:52:59;;;;;;;10.02;7.28;;;13.90;99.90;;;;;;5044407;28;20238;-73
2023/05/21 05:55:26;;;;;;;7.93;7.22;;;13.90;99.90;;;;;;5055327;28;20254;-73
2023/05/21 05:57:54;;;;;;;8.45;7.65;;;13.90;99.90;;;;;;5056340;28;20207;-72
2023/05/21 06:00:21;;;;;;;11.25;7.50;;;13.90;99.90;;;;;;5056447;28;20207;-74
2023/05/21 06:02:48;;;;;;;11.13;9.15;;;13.90;99.90;;;;;;5055913;28;20221;-73
2023/05/21 06:05:15;;;;;;;9.25;7.38;;;14.00;99.90;;;;;;5056533;28;20241;-74
2023/05/21 06:07:42;;;;;;;10.50;8.40;;;13.90;99.90;;;;;;5053089;28;20214;-72
2023/05/21 06:10:10;;;;;;;10.65;8.32;;;14.00;99.90;;;;;;5052896;28;20207;-73
2023/05/21 06:12:37;;;;;;;9.30;8.32;;;14.00;99.90;;;;;;5052687;28;20207;-72
2023/05/21 06:15:06;;;;;;;9.93;8.10;;;14.00;99.90;;;;;;5052838;28;20202;-73
2023/05/21 06:17:33;;;;;;;14.05;8.32;;;14.00;99.90;;;;;;5052479;28;20237;-73
2023/05/21 06:20:00;;;;;;;13.55;8.38;;;14.00;99.90;;;;;;5052039;28;20250;-73
2023/05/21 06:22:27;;;;;;;11.20;8.18;;;14.00;99.90;;;;;;5052255;28;20295;-74
2023/05/21 06:24:54;;;;;;;11.88;7.43;;;14.10;99.90;;;;;;5050754;28;20656;-71
2023/05/21 06:27:21;;;;;;;10.02;7.13;;;14.10;99.90;;;;;;5052794;28;20238;-74
2023/05/21 06:29:48;;;;;;;11.77;7.38;;;14.10;99.90;;;;;;5052283;28;20349;-74
2023/05/21 06:32:16;;;;;;;10.43;7.75;;;14.20;99.90;;;;;;5052349;28;20238;-74
2023/05/21 06:34:43;;;;;;;8.32;7.53;;;14.10;99.90;;;;;;5052440;28;20292;-74
2023/05/21 06:37:10;;;;;;;11.77;7.93;;;14.10;99.90;;;;;;5050044;28;20246;-75
2023/05/21 06:39:36;;;;;;;9.95;8.95;;;14.20;99.90;;;;;;5043799;28;20239;-74
2023/05/21 06:42:03;;;;;;;12.30;8.32;;;14.30;99.90;;;;;;5046715;28;20619;-73
2023/05/21 06:44:30;;;;;;;9.65;8.70;;;14.40;99.90;;;;;;5052546;28;20290;-74
2023/05/21 06:46:57;;;;;;;11.25;8.68;;;14.50;99.90;;;;;;5052521;28;20207;-73
2023/05/21 06:49:26;;;;;;;14.70;8.82;;;14.50;99.90;;;;;;5050875;28;20231;-73
2023/05/21 06:51:53;;;;;;;8.82;7.85;;;14.60;99.90;;;;;;5052057;28;20246;-72
2023/05/21 06:54:20;;;;;;;12.23;8.60;;;14.60;99.90;;;;;;5052366;28;20235;-73
2023/05/21 06:56:46;;;;;;;11.80;9.32;;;14.60;99.90;;;;;;5051664;28;20270;-74
2023/05/21 06:59:13;;;;;;;11.13;8.25;;;14.60;99.90;;;;;;5052332;28;20246;-74
2023/05/21 07:01:42;;;;;;;11.40;9.07;;;14.60;99.90;;;;;;5051624;28;20705;-73
2023/05/21 07:04:09;;;;;;;15.23;7.90;;;14.70;99.90;;;;;;5051919;28;20207;-73
2023/05/21 07:06:38;;;;;;;21.08;9.68;;;14.70;99.90;;;;;;5051366;28;20232;-73
2023/05/21 07:09:05;;;;;;;9.13;8.15;;;14.80;99.90;;;;;;5048565;28;20235;-73
2023/05/21 07:11:32;;;;;;;9.30;8.40;;;14.90;99.90;;;;;;5051778;28;20203;-74
2023/05/21 07:14:00;;;;;;;12.65;8.80;;;15.10;99.90;;;;;;5051218;28;20238;-74
2023/05/21 07:16:27;;;;;;;12.75;10.02;;;15.20;99.90;;;;;;5051316;28;20769;-73
2023/05/21 07:18:54;;;;;;;10.48;8.73;;;15.30;99.90;;;;;;5051283;28;20221;-72
2023/05/21 07:21:21;;;;;;;15.55;9.25;;;15.30;99.90;;;;;;5051966;28;20202;-75
2023/05/21 07:23:50;;;;;;;9.70;8.18;;;15.30;99.90;;;;;;5051968;28;20256;-73
2023/05/21 07:26:16;;;;;;;10.93;9.80;;;15.30;99.90;;;;;;5049936;28;20242;-73
2023/05/21 07:28:43;;;;;;;14.15;8.75;;;15.30;99.90;;;;;;5048070;28;20760;-74
2023/05/21 07:31:11;;;;;;;13.57;8.88;;;15.40;99.90;;;;;;5050401;28;20242;-73
2023/05/21 07:33:39;;;;;;;10.32;8.40;;;15.60;99.90;;;;;;5050680;28;20561;-73
2023/05/21 07:36:06;;;;;;;9.85;8.10;;;15.70;99.90;;;;;;5051108;28;20219;-74
2023/05/21 07:38:33;;;;;;;10.20;8.25;;;15.80;99.90;;;;;;5051058;28;20209;-73
2023/05/21 07:41:01;;;;;;;11.57;8.88;;;15.80;99.90;;;;;;5037525;28;20227;-75
2023/05/21 07:43:28;;;;;;;15.82;8.15;;;15.90;99.90;;;;;;5051085;28;20289;-76
2023/05/21 07:45:55;;;;;;;10.65;8.20;;;15.80;99.90;;;;;;5051430;28;20242;-75
2023/05/21 07:48:22;;;;;;;10.55;8.57;;;15.70;99.90;;;;;;5051456;28;20239;-74
2023/05/21 07:50:51;;;;;;;11.73;7.55;;;15.60;99.90;;;;;;5044690;28;20249;-74
2023/05/21 07:53:18;;;;;;;18.23;9.70;;;15.60;99.90;;;;;;5049904;28;20264;-74
2023/05/21 07:55:47;;;;;;;108.70;23.73;;;15.70;99.90;;;;;;5049297;28;20733;-77
2023/05/21 07:58:17;;;;;;;10.35;7.85;;;15.70;99.90;;;;;;5049271;28;20210;-77
2023/05/21 08:00:45;;;;;;;12.88;8.45;;;15.80;99.90;;;;;;5045587;28;20241;-77
2023/05/21 08:03:15;;;;;;;10.07;8.18;;;15.90;99.90;;;;;;5045245;28;20269;-78
2023/05/21 08:05:43;;;;;;;12.38;7.95;;;16.20;99.90;;;;;;5046314;28;20253;-78
2023/05/21 08:08:11;;;;;;;12.63;7.97;;;16.50;99.90;;;;;;5049552;28;20207;-79
2023/05/21 08:10:38;;;;;;;9.05;7.07;;;16.60;99.90;;;;;;5049722;28;20210;-79
2023/05/21 08:13:05;;;;;;;9.63;7.60;;;16.60;99.90;;;;;;5047994;28;20260;-78
2023/05/21 08:15:34;;;;;;;9.75;7.30;;;16.60;99.90;;;;;;5049100;28;20271;-81
2023/05/21 08:18:00;;;;;;;12.40;8.20;;;16.70;99.90;;;;;;5050718;28;20273;-80
2023/05/21 08:20:29;;;;;;;10.77;8.10;;;16.80;99.90;;;;;;5046544;28;20631;-80
2023/05/21 08:22:56;;;;;;;10.93;7.68;;;16.80;99.90;;;;;;5050952;28;20268;-78
2023/05/21 08:25:24;;;;;;;9.70;7.38;;;16.80;99.90;;;;;;5051000;28;20238;-78
2023/05/21 08:27:51;;;;;;;12.32;8.13;;;16.80;99.90;;;;;;5045104;28;20253;-78
2023/05/21 08:30:18;;;;;;;10.70;7.70;;;16.70;99.90;;;;;;5046021;28;20211;-80
2023/05/21 08:32:47;;;;;;;10.38;7.90;;;16.70;99.90;;;;;;5048382;28;20859;-81
2023/05/21 08:35:14;;;;;;;18.95;7.80;;;16.70;99.90;;;;;;5047905;28;20234;-83
2023/05/21 08:37:41;;;;;;;8.43;7.43;;;16.70;99.90;;;;;;5048644;28;20265;-80
2023/05/21 08:40:11;;;;;;;8.77;7.93;;;16.80;99.90;;;;;;5038344;28;20719;-78
2023/05/21 08:42:43;;;;;;;8.85;6.30;;;16.80;99.90;;;;;;5049252;28;20211;-79
2023/05/21 08:45:11;;;;;;;9.70;7.57;;;16.90;99.90;;;;;;5050589;28;20288;-79
2023/05/21 08:47:42;;;;;;;9.95;6.60;;;17.00;99.90;;;;;;5048356;28;20651;-82
2023/05/21 08:50:12;;;;;;;15.00;7.88;;;17.30;99.90;;;;;;5049355;28;20234;-78
2023/05/21 08:52:39;;;;;;;15.73;7.95;;;17.30;99.90;;;;;;5049869;28;20681;-80
2023/05/21 08:55:07;;;;;;;10.70;7.95;;;17.30;99.90;;;;;;5051178;28;20253;-84
2023/05/21 08:57:34;;;;;;;9.48;8.18;;;17.40;99.90;;;;;;5049461;28;20308;-80
2023/05/21 09:00:03;;;;;;;9.20;7.20;;;17.20;99.90;;;;;;5050886;28;20238;-79
2023/05/21 09:02:34;;;;;;;10.18;7.53;;;17.20;99.90;;;;;;5048909;28;20218;-77
2023/05/21 09:05:02;;;;;;;7.95;6.30;;;17.40;99.90;;;;;;5049990;28;20210;-76
2023/05/21 09:07:31;;;;;;;8.93;7.70;;;17.80;99.90;;;;;;5049261;28;20297;-78
2023/05/21 09:10:02;;;;;;;8.73;6.78;;;18.30;99.90;;;;;;5049837;28;20260;-79
2023/05/21 09:12:29;;;;;;;8.90;6.65;;;18.60;99.90;;;;;;5050171;28;20206;-79
2023/05/21 09:14:57;;;;;;;10.20;7.43;;;18.90;99.90;;;;;;5046665;28;20203;-80
2023/05/21 09:17:24;;;;;;;8.35;7.65;;;18.80;99.90;;;;;;5047456;28;20240;-76
2023/05/21 09:20:11;;;;;;;10.75;6.40;;;18.70;99.90;;;;;;5045650;28;20213;-76
2023/05/21 09:22:41;;;;;;;7.35;6.28;;;18.50;99.90;;;;;;5032395;28;20211;-75
2023/05/21 09:25:09;;;;;;;9.48;7.93;;;18.30;99.90;;;;;;5050059;28;20214;-75
2023/05/21 09:27:36;;;;;;;8.93;6.90;;;18.20;99.90;;;;;;5049517;28;20290;-76
2023/05/21 09:30:05;;;;;;;8.77;6.68;;;18.20;99.90;;;;;;5049933;28;20239;-77
2023/05/21 09:32:32;;;;;;;6.78;6.18;;;18.20;99.90;;;;;;5049626;28;20211;-76
2023/05/21 09:35:10;;;;;;;11.07;6.22;;;18.20;99.90;;;;;;5049792;28;20234;-75
2023/05/21 09:37:42;;;;;;;6.65;6.05;;;18.20;99.90;;;;;;5049692;28;20273;-76
2023/05/21 09:40:14;;;;;;;8.40;6.55;;;18.10;99.90;;;;;;5037246;28;20622;-76
2023/05/21 09:42:41;;;;;;;9.35;7.70;;;18.10;99.90;;;;;;5050656;28;20219;-76
2023/05/21 09:45:10;;;;;;;8.50;6.93;;;18.30;99.90;;;;;;5053643;28;20245;-76
2023/05/21 09:47:42;;;;;;;9.15;6.47;;;18.00;99.90;;;;;;5053060;28;20623;-76
2023/05/21 09:50:10;;;;;;;9.68;6.38;;;18.10;99.90;;;;;;5054025;28;20211;-76
2023/05/21 09:52:37;;;;;;;8.95;6.43;;;18.20;99.90;;;;;;5053224;28;20210;-77
2023/05/21 09:55:07;;;;;;;10.05;6.70;;;18.10;99.90;;;;;;5053036;28;20728;-75
2023/05/21 09:57:41;;;;;;;9.18;6.30;;;17.90;99.90;;;;;;5053024;28;20266;-76
2023/05/21 10:00:11;;;;;;;6.70;6.10;;;17.80;99.90;;;;;;5053478;28;20219;-75
2023/05/21 10:02:44;;;;;;;7.40;6.70;;;17.80;99.90;;;;;;5052917;28;20339;-75
2023/05/21 10:05:13;;;;;;;10.63;8.25;;;17.60;99.90;;;;;;5053217;28;20663;-76
2023/05/21 10:07:42;;;;;;;8.35;6.18;;;17.60;99.90;;;;;;5052899;28;20239;-75
2023/05/21 10:10:13;;;;;;;7.40;6.45;;;17.40;99.90;;;;;;5053330;28;20247;-76
2023/05/21 10:12:43;;;;;;;6.72;5.90;;;17.30;99.90;;;;;;5052723;28;20211;-74
2023/05/21 10:15:14;;;;;;;7.38;6.70;;;17.10;99.90;;;;;;5053438;28;20206;-75
2023/05/21 10:17:43;;;;;;;6.93;5.80;;;17.10;99.90;;;;;;5053287;28;20234;-76
2023/05/21 10:20:11;;;;;;;8.55;7.28;;;17.00;99.90;;;;;;5053225;28;20289;-75
2023/05/21 10:22:38;;;;;;;13.90;6.70;;;17.00;99.90;;;;;;5052662;28;20662;-76
2023/05/21 10:25:07;;;;;;;8.95;6.88;;;17.00;99.90;;;;;;5052760;28;20231;-75
2023/05/21 10:27:36;;;;;;;9.93;6.88;;;17.00;99.90;;;;;;5052632;28;20253;-75
2023/05/21 10:30:05;;;;;;;10.32;6.93;;;16.90;99.90;;;;;;5056165;28;20749;-76
2023/05/21 10:32:33;;;;;;;9.45;7.75;;;16.90;99.90;;;;;;5062854;28;20211;-75
2023/05/21 10:35:01;;;;;;;8.38;6.78;;;16.90;99.90;;;;;;5052761;28;20698;-76
2023/05/21 10:37:29;;;;;;;7.45;6.75;;;16.90;99.90;;;;;;5052204;28;20288;-76
2023/05/21 10:39:56;;;;;;;12.43;7.10;;;17.00;99.90;;;;;;5041847;28;20725;-76
2023/05/21 10:42:46;;;;;;;7.97;7.03;;;16.90;99.90;;;;;;5049545;28;20234;-75
2023/05/21 10:45:23;;;;;;;9.48;7.68;;;17.00;99.90;;;;;;5052645;28;20262;-76
2023/05/21 10:48:11;;;;;;;7.65;6.95;;;17.20;99.90;;;;;;5052871;28;20213;-76
2023/05/21 10:51:05;;;;;;;7.53;6.32;;;17.00;99.90;;;;;;5051990;28;20210;-76
2023/05/21 10:53:41;;;;;;;7.90;6.05;;;17.00;99.90;;;;;;5051410;28;20305;-75
2023/05/21 10:56:18;;;;;;;14.60;6.63;;;17.10;99.90;;;;;;5052416;28;20234;-76
2023/05/21 10:59:07;;;;;;;8.32;6.57;;;16.90;99.90;;;;;;5051948;28;20270;-76
2023/05/21 11:01:37;;;;;;;8.63;6.88;;;16.90;99.90;;;;;;5038967;28;20268;-74
2023/05/21 11:04:04;;;;;;;8.07;7.22;;;16.90;99.90;;;;;;5052351;28;20238;-74
2023/05/21 11:06:32;;;;;;;9.50;8.10;;;17.00;99.90;;;;;;5051708;28;20199;-77
2023/05/21 11:09:11;;;;;;;8.55;7.72;;;16.90;99.90;;;;;;5052135;28;20246;-76
2023/05/21 11:11:44;;;;;;;11.80;8.60;;;16.80;99.90;;;;;;5051775;28;20246;-74
2023/05/21 11:14:34;;;;;;;10.90;8.27;;;16.90;99.90;;;;;;5051831;28;20580;-75
2023/05/21 11:17:02;;;;;;;8.98;8.10;;;16.70;99.90;;;;;;5051898;28;20218;-75
2023/05/21 11:19:36;;;;;;;10.77;8.93;;;16.80;99.90;;;;;;5051631;28;20226;-75
2023/05/21 11:22:20;;;;;;;12.00;8.75;;;16.70;99.90;;;;;;5051952;28;20210;-75
2023/05/21 11:24:48;;;;;;;9.02;8.05;;;16.60;99.90;;;;;;5039210;28;20234;-75
2023/05/21 11:27:31;;;;;;;10.85;8.05;;;16.50;99.90;;;;;;5051593;28;20215;-75
2023/05/21 11:29:59;;;;;;;9.38;8.30;;;16.70;99.90;;;;;;5051835;28;20210;-75
2023/05/21 11:32:26;;;;;;;12.10;8.30;;;16.60;99.90;;;;;;5051229;28;20210;-75
2023/05/21 11:34:53;;;;;;;10.13;8.77;;;16.60;99.90;;;;;;5048145;28;20572;-75
2023/05/21 11:37:33;;;;;;;9.60;8.63;;;16.70;99.90;;;;;;5044598;28;20266;-76
2023/05/21 11:40:26;;;;;;;35.10;31.52;;;16.80;99.90;;;;;;5031311;28;20264;-76
2023/05/21 11:42:54;;;;;;;9.15;8.20;;;17.00;99.90;;;;;;5035944;28;20337;-75
2023/05/21 11:45:25;;;;;;;8.70;7.63;;;17.00;99.90;;;;;;5051927;28;20261;-77
2023/05/21 11:47:52;;;;;;;7.55;6.80;;;17.20;99.90;;;;;;5051672;28;20261;-76
2023/05/21 11:50:19;;;;;;;7.40;6.65;;;17.30;99.90;;;;;;5051552;28;20242;-76
2023/05/21 11:52:46;;;;;;;9.93;8.02;;;17.20;99.90;;;;;;5050684;28;20556;-76
2023/05/21 11:55:15;;;;;;;8.23;7.43;;;17.20;99.90;;;;;;5059641;28;20268;-76
2023/05/21 11:57:43;;;;;;;9.80;7.65;;;17.20;99.90;;;;;;5056237;28;20716;-77
2023/05/21 12:00:15;;;;;;;9.30;8.35;;;17.10;99.90;;;;;;5051182;28;20528;-76
2023/05/21 12:02:48;;;;;;;12.60;8.55;;;17.10;99.90;;;;;;5050592;28;20219;-76
2023/05/21 12:05:15;;;;;;;10.15;7.57;;;17.20;99.90;;;;;;5050631;28;20207;-76
2023/05/21 12:07:42;;;;;;;9.20;8.30;;;17.30;99.90;;;;;;5050687;28;20238;-77
2023/05/21 12:10:10;;;;;;;10.30;9.32;;;17.20;99.90;;;;;;5050737;28;20206;-77
2023/05/21 12:12:37;;;;;;;10.95;8.60;;;17.20;99.90;;;;;;5050647;28;20211;-76
2023/05/21 12:15:05;;;;;;;9.63;8.18;;;17.20;99.90;;;;;;5050739;28;20675;-77
2023/05/21 12:17:32;;;;;;;10.65;7.65;;;17.10;99.90;;;;;;5049782;28;20686;-77
2023/05/21 12:20:05;;;;;;;10.10;7.97;;;17.20;99.90;;;;;;5050458;28;20218;-77
2023/05/21 12:22:32;;;;;;;8.88;8.00;;;17.30;99.90;;;;;;5050407;28;20623;-76
2023/05/21 12:24:59;;;;;;;10.13;8.32;;;17.30;99.90;;;;;;5050603;28;20238;-77
2023/05/21 12:27:27;;;;;;;8.10;7.40;;;17.30;99.90;;;;;;5058301;28;20285;-76
2023/05/21 12:29:54;;;;;;;10.85;9.65;;;17.20;99.90;;;;;;5056341;28;20242;-76
2023/05/21 12:32:21;;;;;;;10.65;8.93;;;17.10;99.90;;;;;;5051162;28;20207;-76
2023/05/21 12:34:50;;;;;;;10.98;7.30;;;17.20;99.90;;;;;;5050390;28;20203;-76
2023/05/21 12:37:22;;;;;;;8.32;7.57;;;17.30;99.90;;;;;;5050964;28;20202;-76
2023/05/21 12:39:50;;;;;;;11.40;7.88;;;17.30;99.90;;;;;;5040400;28;20204;-77
2023/05/21 12:42:23;;;;;;;9.45;7.90;;;17.30;99.90;;;;;;5046499;28;20211;-76
2023/05/21 12:44:52;;;;;;;8.85;7.95;;;17.40;99.90;;;;;;5050812;28;20261;-77
2023/05/21 12:47:22;;;;;;;8.55;7.65;;;17.40;99.90;;;;;;5050825;28;20242;-76
2023/05/21 12:49:49;;;;;;;8.45;7.57;;;17.70;99.90;;;;;;5050618;28;20251;-76